createdAt,value
2023-03-18T00:01:32.367Z,13.03
2023-03-18T00:04:01.249Z,7.80
2023-03-18T00:06:31.247Z,4.23
2023-03-18T00:08:59.631Z,3.40
2023-03-18T00:11:27.921Z,3.80
2023-03-18T00:13:56.299Z,8.57
2023-03-18T00:16:24.875Z,8.70
2023-03-18T00:18:53.264Z,7.20
2023-03-18T00:21:23.260Z,3.50
2023-03-18T00:23:56.579Z,5.20
2023-03-18T00:26:25.815Z,3.60
2023-03-18T00:28:54.142Z,16.53
2023-03-18T00:31:22.905Z,3.77
2023-03-18T00:33:51.311Z,5.93
2023-03-18T00:36:25.692Z,2.93
2023-03-18T00:38:58.029Z,4.40
2023-03-18T00:41:27.793Z,4.87
2023-03-18T00:43:57.715Z,5.73
2023-03-18T00:46:27.631Z,4.13
2023-03-18T00:48:57.557Z,3.03
2023-03-18T00:51:27.927Z,3.27
2023-03-18T00:54:00.468Z,4.57
2023-03-18T00:56:32.151Z,6.70
2023-03-18T00:59:01.323Z,4.63
2023-03-18T01:01:30.637Z,10.13
2023-03-18T01:04:01.570Z,9.17
2023-03-18T01:06:32.736Z,2.70
2023-03-18T01:09:05.188Z,3.27
2023-03-18T01:11:33.687Z,2.63
2023-03-18T01:14:02.436Z,3.00
2023-03-18T01:16:30.968Z,3.20
2023-03-18T01:19:00.023Z,2.80
2023-03-18T01:21:28.786Z,3.10
2023-03-18T01:24:02.342Z,2.80
2023-03-18T01:26:31.794Z,6.93
2023-03-18T01:29:02.913Z,4.83
2023-03-18T01:31:34.795Z,2.40
2023-03-18T01:34:08.555Z,4.30
2023-03-18T01:36:48.393Z,4.67
2023-03-18T01:39:18.876Z,4.23
2023-03-18T01:41:48.922Z,4.80
2023-03-18T01:44:24.889Z,3.67
2023-03-18T01:46:56.946Z,12.70
2023-03-18T01:49:30.777Z,10.93
2023-03-18T01:52:09.253Z,9.60
2023-03-18T01:54:42.404Z,4.50
2023-03-18T01:57:12.845Z,4.73
2023-03-18T01:59:43.528Z,3.60
2023-03-18T02:02:14.654Z,2.73
2023-03-18T02:04:44.913Z,2.93
2023-03-18T02:07:16.794Z,3.90
2023-03-18T02:09:47.700Z,5.20
2023-03-18T02:12:25.517Z,5.53
2023-03-18T02:14:58.808Z,3.47
2023-03-18T02:17:30.503Z,2.77
2023-03-18T02:20:10.708Z,4.53
2023-03-18T02:22:43.500Z,4.07
2023-03-18T02:25:23.103Z,5.90
2023-03-18T02:27:56.840Z,5.93
2023-03-18T02:30:34.220Z,5.23
2023-03-18T02:33:05.203Z,10.33
2023-03-18T02:35:35.539Z,4.57
2023-03-18T02:38:04.872Z,6.37
2023-03-18T02:40:35.885Z,4.73
2023-03-18T02:43:24.040Z,4.80
2023-03-18T02:46:13.852Z,5.43
2023-03-18T02:48:45.551Z,5.87
2023-03-18T02:51:16.238Z,2.77
2023-03-18T02:53:46.288Z,3.37
2023-03-18T02:56:15.359Z,2.77
2023-03-18T02:58:46.633Z,3.43
2023-03-18T03:01:16.875Z,2.80
2023-03-18T03:03:45.618Z,4.40
2023-03-18T03:06:15.363Z,2.97
2023-03-18T03:08:43.854Z,4.53
2023-03-18T03:11:12.928Z,3.37
2023-03-18T03:13:45.423Z,3.80
2023-03-18T03:16:18.493Z,3.63
2023-03-18T03:18:47.268Z,3.07
2023-03-18T03:21:17.108Z,2.80
2023-03-18T03:23:46.683Z,3.97
2023-03-18T03:26:16.962Z,3.40
2023-03-18T03:28:46.500Z,3.93
2023-03-18T03:31:17.128Z,3.70
2023-03-18T03:33:45.875Z,2.77
2023-03-18T03:36:17.146Z,4.23
2023-03-18T03:38:49.225Z,3.27
2023-03-18T03:41:18.034Z,3.20
2023-03-18T03:43:46.447Z,3.10
2023-03-18T03:46:16.340Z,3.03
2023-03-18T03:48:45.380Z,3.00
2023-03-18T03:51:15.972Z,3.80
2023-03-18T03:53:46.326Z,2.80
2023-03-18T03:56:15.819Z,3.47
2023-03-18T03:58:44.450Z,2.57
2023-03-18T04:01:13.578Z,4.83
2023-03-18T04:03:44.327Z,4.67
2023-03-18T04:06:13.406Z,2.63
2023-03-18T04:08:49.429Z,3.47
2023-03-18T04:11:17.830Z,2.70
2023-03-18T04:13:46.610Z,3.50
2023-03-18T04:16:17.190Z,2.90
2023-03-18T04:18:47.007Z,7.80
2023-03-18T04:21:16.532Z,4.60
2023-03-18T04:23:49.094Z,4.23
2023-03-18T04:26:18.402Z,2.80
2023-03-18T04:28:47.083Z,2.70
2023-03-18T04:31:17.851Z,5.23
2023-03-18T04:33:47.828Z,4.53
2023-03-18T04:36:16.715Z,2.70
2023-03-18T04:38:45.133Z,2.33
2023-03-18T04:41:13.640Z,2.93
2023-03-18T04:43:41.961Z,6.53
2023-03-18T04:46:12.170Z,2.90
2023-03-18T04:48:41.164Z,3.47
2023-03-18T04:51:12.675Z,3.50
2023-03-18T04:53:42.213Z,3.10
2023-03-18T04:56:12.713Z,4.63
2023-03-18T04:58:49.428Z,2.53
2023-03-18T05:01:23.525Z,3.13
2023-03-18T05:03:52.918Z,3.60
2023-03-18T05:06:27.108Z,2.43
2023-03-18T05:09:08.927Z,2.50
2023-03-18T05:11:38.300Z,15.53
2023-03-18T05:14:22.611Z,4.20
2023-03-18T05:16:51.898Z,2.60
2023-03-18T05:19:20.822Z,2.43
2023-03-18T05:22:04.946Z,3.70
2023-03-18T05:24:33.438Z,3.03
2023-03-18T05:27:01.867Z,6.33
2023-03-18T05:29:36.632Z,3.63
2023-03-18T05:32:16.760Z,5.43
2023-03-18T05:34:47.704Z,4.43
2023-03-18T05:37:18.298Z,9.53
2023-03-18T05:39:59.409Z,7.87
2023-03-18T05:42:28.263Z,5.77
2023-03-18T05:44:57.117Z,2.93
2023-03-18T05:47:27.167Z,4.93
2023-03-18T05:50:13.540Z,4.67
2023-03-18T05:52:44.420Z,7.87
2023-03-18T05:55:20.048Z,4.30
2023-03-18T05:57:48.803Z,3.43
2023-03-18T06:00:19.350Z,3.20
2023-03-18T06:02:52.514Z,5.37
2023-03-18T06:05:21.179Z,4.97
2023-03-18T06:07:51.619Z,6.20
2023-03-18T06:10:21.093Z,5.97
2023-03-18T06:12:50.689Z,3.70
2023-03-18T06:15:21.518Z,3.50
2023-03-18T06:17:50.650Z,5.37
2023-03-18T06:20:19.892Z,2.93
2023-03-18T06:22:50.440Z,3.93
2023-03-18T06:25:20.670Z,5.53
2023-03-18T06:27:50.738Z,5.23
2023-03-18T06:30:22.221Z,4.00
2023-03-18T06:32:51.046Z,9.20
2023-03-18T06:35:19.955Z,5.23
2023-03-18T06:37:48.665Z,6.00
2023-03-18T06:40:18.673Z,4.17
2023-03-18T06:42:49.045Z,14.73
2023-03-18T06:45:29.329Z,7.70
2023-03-18T06:48:02.363Z,14.90
2023-03-18T06:50:33.073Z,13.50
2023-03-18T06:53:02.420Z,8.30
2023-03-18T06:55:35.797Z,8.87
2023-03-18T06:58:06.514Z,9.87
2023-03-18T07:00:45.532Z,9.23
2023-03-18T07:03:20.386Z,7.60
2023-03-18T07:05:51.160Z,5.90
2023-03-18T07:08:20.119Z,8.17
2023-03-18T07:10:52.834Z,19.30
2023-03-18T07:13:21.836Z,6.00
2023-03-18T07:15:50.221Z,13.30
2023-03-18T07:18:19.974Z,11.87
2023-03-18T07:20:48.459Z,9.47
2023-03-18T07:23:17.147Z,4.97
2023-03-18T07:25:46.426Z,11.43
2023-03-18T07:28:16.440Z,20.40
2023-03-18T07:30:45.120Z,12.93
2023-03-18T07:33:13.691Z,10.90
2023-03-18T07:35:42.125Z,10.67
2023-03-18T07:38:11.762Z,22.00
2023-03-18T07:40:40.395Z,6.70
2023-03-18T07:43:09.288Z,15.30
2023-03-18T07:45:39.356Z,11.30
2023-03-18T07:48:08.093Z,5.00
2023-03-18T07:50:36.620Z,7.50
2023-03-18T07:53:05.059Z,12.50
2023-03-18T07:55:34.276Z,5.23
2023-03-18T07:58:04.877Z,7.83
2023-03-18T08:00:33.780Z,4.00
2023-03-18T08:03:04.085Z,10.77
2023-03-18T08:05:34.181Z,6.47
2023-03-18T08:08:04.382Z,15.63
2023-03-18T08:10:35.560Z,13.53
2023-03-18T08:13:04.463Z,5.50
2023-03-18T08:15:33.132Z,6.07
2023-03-18T08:18:03.102Z,8.97
2023-03-18T08:20:31.780Z,10.93
2023-03-18T08:23:00.279Z,7.83
2023-03-18T08:25:28.704Z,10.13
2023-03-18T08:27:57.061Z,15.63
2023-03-18T08:30:28.779Z,4.87
2023-03-18T08:32:58.461Z,7.00
2023-03-18T08:35:28.188Z,9.83
2023-03-18T08:37:57.191Z,17.70
2023-03-18T08:40:26.187Z,13.93
2023-03-18T08:42:54.717Z,14.10
2023-03-18T08:45:23.107Z,10.33
2023-03-18T08:47:51.549Z,6.37
2023-03-18T08:50:20.929Z,6.87
2023-03-18T08:52:51.401Z,6.67
2023-03-18T08:55:21.536Z,5.43
2023-03-18T08:57:50.178Z,11.63
2023-03-18T09:00:20.274Z,6.37
2023-03-18T09:02:48.873Z,9.67
2023-03-18T09:05:17.997Z,5.47
2023-03-18T09:07:46.711Z,9.07
2023-03-18T09:10:17.913Z,6.80
2023-03-18T09:12:48.132Z,8.87
2023-03-18T09:15:21.017Z,12.40
2023-03-18T09:18:08.112Z,9.40
2023-03-18T09:20:39.066Z,13.80
2023-03-18T09:23:07.801Z,8.87
2023-03-18T09:25:37.567Z,8.47
2023-03-18T09:28:06.400Z,6.00
2023-03-18T09:30:34.976Z,9.83
2023-03-18T09:33:03.508Z,6.17
2023-03-18T09:35:32.584Z,10.07
2023-03-18T09:38:01.488Z,6.60
2023-03-18T09:40:32.848Z,6.20
2023-03-18T09:43:21.264Z,8.40
2023-03-18T09:46:00.689Z,6.53
2023-03-18T09:48:41.719Z,6.53
2023-03-18T09:51:22.079Z,6.20
2023-03-18T09:53:54.160Z,9.87
2023-03-18T09:56:26.700Z,7.43
2023-03-18T09:59:00.530Z,4.33
2023-03-18T10:01:30.404Z,9.20
2023-03-18T10:04:04.048Z,9.70
2023-03-18T10:06:32.845Z,17.00
2023-03-18T10:09:10.986Z,13.10
2023-03-18T10:11:42.892Z,8.33
2023-03-18T10:14:36.183Z,7.87
2023-03-18T10:17:14.892Z,3.50
2023-03-18T10:19:48.651Z,8.10
2023-03-18T10:22:49.363Z,4.53
2023-03-18T10:25:22.502Z,10.60
2023-03-18T10:28:02.112Z,5.20
2023-03-18T10:30:48.779Z,4.87
2023-03-18T10:33:26.221Z,53.03
2023-03-18T10:36:00.874Z,6.53
2023-03-18T10:38:36.457Z,4.13
2023-03-18T10:41:14.314Z,3.67
2023-03-18T10:43:43.086Z,6.23
2023-03-18T10:46:16.971Z,6.37
2023-03-18T10:48:49.270Z,4.70
2023-03-18T10:51:22.955Z,5.40
2023-03-18T10:53:58.866Z,5.97
2023-03-18T10:56:27.514Z,4.07
2023-03-18T10:58:56.492Z,3.20
2023-03-18T11:01:29.808Z,3.53
2023-03-18T11:04:03.410Z,4.73
2023-03-18T11:06:41.777Z,3.67
2023-03-18T11:09:12.506Z,6.17
2023-03-18T11:11:42.331Z,6.77
2023-03-18T11:14:17.214Z,5.47
2023-03-18T11:16:57.666Z,6.80
2023-03-18T11:19:30.394Z,5.33
2023-03-18T11:22:20.797Z,4.80
2023-03-18T11:25:06.188Z,5.93
2023-03-18T11:27:41.592Z,4.77
2023-03-18T11:30:31.249Z,4.50
2023-03-18T11:33:14.415Z,4.20
2023-03-18T11:35:48.153Z,4.20
2023-03-18T11:38:19.087Z,4.00
2023-03-18T11:40:48.059Z,5.13
2023-03-18T11:43:20.276Z,5.97
2023-03-18T11:45:52.473Z,7.23
2023-03-18T11:48:30.645Z,5.23
2023-03-18T11:51:39.741Z,3.63
2023-03-18T11:54:24.156Z,14.43
2023-03-18T11:56:58.768Z,12.50
2023-03-18T11:59:52.739Z,8.23
2023-03-18T12:02:40.591Z,6.07
2023-03-18T12:05:35.827Z,6.07
2023-03-18T12:08:14.912Z,4.93
2023-03-18T12:10:48.738Z,6.23
2023-03-18T12:13:31.781Z,7.07
2023-03-18T12:16:08.244Z,4.53
2023-03-18T12:18:51.002Z,5.43
2023-03-18T12:21:53.861Z,4.13
2023-03-18T12:24:35.257Z,3.37
2023-03-18T12:27:09.645Z,4.93
2023-03-18T12:30:01.342Z,5.90
2023-03-18T12:32:34.195Z,6.50
2023-03-18T12:35:20.540Z,5.17
2023-03-18T12:38:06.017Z,4.93
2023-03-18T12:40:44.883Z,3.97
2023-03-18T12:43:33.148Z,3.50
2023-03-18T12:46:10.795Z,3.60
2023-03-18T12:48:49.664Z,6.87
2023-03-18T12:51:22.719Z,4.47
2023-03-18T12:53:57.023Z,4.93
2023-03-18T12:56:28.204Z,4.97
2023-03-18T12:59:03.325Z,11.93
2023-03-18T13:01:37.298Z,8.03
2023-03-18T13:04:08.558Z,8.63
2023-03-18T13:06:41.740Z,5.00
2023-03-18T13:09:20.713Z,8.17
2023-03-18T13:12:07.500Z,7.20
2023-03-18T13:14:57.659Z,6.70
2023-03-18T13:17:30.326Z,4.27
2023-03-18T13:20:10.269Z,4.70
2023-03-18T13:23:07.424Z,5.63
2023-03-18T13:25:44.951Z,5.27
2023-03-18T13:28:33.415Z,4.47
2023-03-18T13:31:11.471Z,8.63
2023-03-18T13:34:13.099Z,8.70
2023-03-18T13:37:00.959Z,11.50
2023-03-18T13:40:09.555Z,7.37
2023-03-18T13:42:40.780Z,3.50
2023-03-18T13:45:22.477Z,6.97
2023-03-18T13:47:58.219Z,7.00
2023-03-18T13:50:35.558Z,4.47
2023-03-18T13:53:06.383Z,3.73
2023-03-18T13:55:43.093Z,4.13
2023-03-18T13:58:30.035Z,2.60
2023-03-18T14:01:28.777Z,4.30
2023-03-18T14:04:03.097Z,4.23
2023-03-18T14:06:48.616Z,3.70
2023-03-18T14:09:47.452Z,4.53
2023-03-18T14:12:22.391Z,6.83
2023-03-18T14:15:06.081Z,5.47
2023-03-18T14:17:46.408Z,4.13
2023-03-18T14:20:27.385Z,4.57
2023-03-18T14:22:57.094Z,5.07
2023-03-18T14:25:41.948Z,3.27
2023-03-18T14:28:23.207Z,6.03
2023-03-18T14:31:14.233Z,3.20
2023-03-18T14:34:05.977Z,5.63
2023-03-18T14:37:09.409Z,9.70
2023-03-18T14:39:41.509Z,3.07
2023-03-18T14:42:17.856Z,5.23
2023-03-18T14:44:49.085Z,9.33
2023-03-18T14:47:37.523Z,5.07
2023-03-18T14:50:15.255Z,7.97
2023-03-18T14:52:48.939Z,4.57
2023-03-18T14:55:20.750Z,4.33
2023-03-18T14:57:49.273Z,7.57
2023-03-18T15:00:20.652Z,5.93
2023-03-18T15:03:00.716Z,5.03
2023-03-18T15:05:36.098Z,4.97
2023-03-18T15:08:10.830Z,6.23
2023-03-18T15:10:40.299Z,3.33
2023-03-18T15:13:12.958Z,4.90
2023-03-18T15:15:42.773Z,4.33
2023-03-18T15:18:19.721Z,5.57
2023-03-18T15:20:52.411Z,2.43
2023-03-18T15:23:28.652Z,4.27
2023-03-18T15:25:57.317Z,3.00
2023-03-18T15:28:28.472Z,4.70
2023-03-18T15:30:59.924Z,5.03
2023-03-18T15:33:36.752Z,5.00
2023-03-18T15:36:07.361Z,5.90
2023-03-18T15:38:36.034Z,6.47
2023-03-18T15:41:07.520Z,5.67
2023-03-18T15:43:42.323Z,6.90
2023-03-18T15:46:18.213Z,8.37
2023-03-18T15:48:54.851Z,6.80
2023-03-18T15:51:27.220Z,4.17
2023-03-18T15:53:57.900Z,5.17
2023-03-18T15:56:29.522Z,10.97
2023-03-18T15:59:06.948Z,3.57
2023-03-18T16:01:36.369Z,2.63
2023-03-18T16:04:07.894Z,3.30
2023-03-18T16:06:36.539Z,3.00
2023-03-18T16:09:15.890Z,7.57
2023-03-18T16:11:48.554Z,4.90
2023-03-18T16:14:19.053Z,6.50
2023-03-18T16:16:47.816Z,6.40
2023-03-18T16:19:25.376Z,3.83
2023-03-18T16:21:54.170Z,5.10
2023-03-18T16:24:22.585Z,5.53
2023-03-18T16:26:53.009Z,3.13
2023-03-18T16:29:27.886Z,9.73
2023-03-18T16:31:57.214Z,5.07
2023-03-18T16:34:27.879Z,7.00
2023-03-18T16:36:56.759Z,3.67
2023-03-18T16:39:27.387Z,4.30
2023-03-18T16:41:56.489Z,6.83
2023-03-18T16:44:24.997Z,3.70
2023-03-18T16:46:56.617Z,4.60
2023-03-18T16:49:30.947Z,6.80
2023-03-18T16:52:00.689Z,5.27
2023-03-18T16:54:30.680Z,10.73
2023-03-18T16:57:01.693Z,10.43
2023-03-18T16:59:32.819Z,12.20
2023-03-18T17:02:04.270Z,7.70
2023-03-18T17:04:35.946Z,12.57
2023-03-18T17:07:05.776Z,12.03
2023-03-18T17:09:34.507Z,8.17
2023-03-18T17:12:07.598Z,10.17
2023-03-18T17:14:39.888Z,9.90
2023-03-18T17:17:16.432Z,9.97
2023-03-18T17:19:46.355Z,9.93
2023-03-18T17:22:22.702Z,8.63
2023-03-18T17:24:51.841Z,12.40
2023-03-18T17:27:22.184Z,8.90
2023-03-18T17:29:51.169Z,17.67
2023-03-18T17:32:22.336Z,13.57
2023-03-18T17:34:53.038Z,10.67
2023-03-18T17:37:23.692Z,12.03
2023-03-18T17:39:52.161Z,12.87
2023-03-18T17:42:30.295Z,10.90
2023-03-18T17:45:03.432Z,5.97
2023-03-18T17:47:32.012Z,8.80
2023-03-18T17:50:01.815Z,12.63
2023-03-18T17:52:30.696Z,10.20
2023-03-18T17:54:59.229Z,12.07
2023-03-18T17:57:28.003Z,9.70
2023-03-18T17:59:57.676Z,11.33
2023-03-18T18:02:26.139Z,13.50
2023-03-18T18:04:54.510Z,10.93
2023-03-18T18:07:24.348Z,11.27
2023-03-18T18:09:52.905Z,12.10
2023-03-18T18:12:25.394Z,12.03
2023-03-18T18:14:53.798Z,20.77
2023-03-18T18:17:22.060Z,17.50
2023-03-18T18:19:50.627Z,15.47
2023-03-18T18:22:21.985Z,12.53
2023-03-18T18:24:53.042Z,17.17
2023-03-18T18:27:21.644Z,16.57
2023-03-18T18:29:50.320Z,20.60
2023-03-18T18:32:19.122Z,11.17
2023-03-18T18:34:47.528Z,16.37
2023-03-18T18:37:15.957Z,14.23
2023-03-18T18:39:44.328Z,12.87
2023-03-18T18:42:14.110Z,20.13
2023-03-18T18:44:43.431Z,16.13
2023-03-18T18:47:19.347Z,15.53
2023-03-18T18:49:48.094Z,21.00
2023-03-18T18:52:17.036Z,10.60
2023-03-18T18:54:45.519Z,16.63
2023-03-18T18:57:26.833Z,18.27
2023-03-18T18:59:55.797Z,14.50
2023-03-18T19:02:31.336Z,15.43
2023-03-18T19:05:00.146Z,18.07
2023-03-18T19:07:29.416Z,35.40
2023-03-18T19:09:57.832Z,12.80
2023-03-18T19:12:27.819Z,22.00
2023-03-18T19:14:56.506Z,20.60
2023-03-18T19:17:25.755Z,19.53
2023-03-18T19:19:54.860Z,21.10
2023-03-18T19:22:23.508Z,24.63
2023-03-18T19:24:52.098Z,25.77
2023-03-18T19:27:24.065Z,22.47
2023-03-18T19:29:57.639Z,22.13
2023-03-18T19:32:27.147Z,22.60
2023-03-18T19:34:56.345Z,16.07
2023-03-18T19:37:28.579Z,20.50
2023-03-18T19:39:57.287Z,17.00
2023-03-18T19:42:25.816Z,13.53
2023-03-18T19:44:56.594Z,19.07
2023-03-18T19:47:28.198Z,13.63
2023-03-18T19:49:56.855Z,15.87
2023-03-18T19:52:27.378Z,16.47
2023-03-18T19:54:56.327Z,12.67
2023-03-18T19:57:27.637Z,20.40
2023-03-18T19:59:58.729Z,17.33
2023-03-18T20:02:29.737Z,14.30
2023-03-18T20:05:00.723Z,15.77
2023-03-18T20:07:31.044Z,14.27
2023-03-18T20:09:59.415Z,18.07
2023-03-18T20:12:33.571Z,13.30
2023-03-18T20:15:04.632Z,21.33
2023-03-18T20:17:38.380Z,24.80
2023-03-18T20:20:16.465Z,24.27
2023-03-18T20:22:48.205Z,12.63
2023-03-18T20:25:22.569Z,14.63
2023-03-18T20:27:55.681Z,17.77
2023-03-18T20:30:28.747Z,12.33
2023-03-18T20:32:58.076Z,13.17
2023-03-18T20:35:29.324Z,14.83
2023-03-18T20:37:59.589Z,15.67
2023-03-18T20:40:29.833Z,12.50
2023-03-18T20:42:58.862Z,13.10
2023-03-18T20:45:28.826Z,9.80
2023-03-18T20:47:57.919Z,13.90
2023-03-18T20:50:29.947Z,10.57
2023-03-18T20:52:58.776Z,10.73
2023-03-18T20:55:30.733Z,11.67
2023-03-18T20:58:00.712Z,11.63
2023-03-18T21:00:32.885Z,9.10
2023-03-18T21:03:03.763Z,15.17
2023-03-18T21:05:32.354Z,10.07
2023-03-18T21:08:00.780Z,10.03
2023-03-18T21:10:29.206Z,11.33
2023-03-18T21:12:57.595Z,9.07
2023-03-18T21:15:28.258Z,14.30
2023-03-18T21:17:58.495Z,11.80
2023-03-18T21:20:29.591Z,9.87
2023-03-18T21:22:58.019Z,10.60
2023-03-18T21:25:28.273Z,10.40
2023-03-18T21:27:56.808Z,13.20
2023-03-18T21:30:25.283Z,11.60
2023-03-18T21:32:53.777Z,12.07
2023-03-18T21:35:25.799Z,10.50
2023-03-18T21:37:54.973Z,17.17
2023-03-18T21:40:25.031Z,10.30
2023-03-18T21:42:53.721Z,13.83
2023-03-18T21:45:24.336Z,10.77
2023-03-18T21:47:53.657Z,11.60
2023-03-18T21:50:25.444Z,11.87
2023-03-18T21:52:54.868Z,10.07
2023-03-18T21:55:23.625Z,11.37
2023-03-18T21:57:52.007Z,12.67
2023-03-18T22:00:21.940Z,13.43
2023-03-18T22:02:50.661Z,10.47
2023-03-18T22:05:24.752Z,17.73
2023-03-18T22:07:54.587Z,16.17
2023-03-18T22:10:24.538Z,14.23
2023-03-18T22:12:53.004Z,11.17
2023-03-18T22:15:36.912Z,13.73
2023-03-18T22:18:08.552Z,12.87
2023-03-18T22:20:37.530Z,13.40
2023-03-18T22:23:16.427Z,11.50
2023-03-18T22:25:45.934Z,17.37
2023-03-18T22:28:14.439Z,12.10
2023-03-18T22:30:45.177Z,14.97
2023-03-18T22:33:21.958Z,10.73
2023-03-18T22:35:50.392Z,14.97
2023-03-18T22:38:21.719Z,13.47
2023-03-18T22:40:52.868Z,13.37
2023-03-18T22:43:30.138Z,14.80
2023-03-18T22:45:59.136Z,16.60
2023-03-18T22:48:27.900Z,17.57
2023-03-18T22:50:59.204Z,14.37
2023-03-18T22:53:31.436Z,15.97
2023-03-18T22:56:08.188Z,19.27
2023-03-18T22:58:36.659Z,14.57
2023-03-18T23:01:05.655Z,19.43
2023-03-18T23:03:36.036Z,17.60
2023-03-18T23:06:05.456Z,17.47
2023-03-18T23:08:35.191Z,15.63
2023-03-18T23:11:03.935Z,16.27
2023-03-18T23:13:36.876Z,16.23
2023-03-18T23:16:06.888Z,12.57
2023-03-18T23:18:35.532Z,13.47
2023-03-18T23:21:03.871Z,12.43
2023-03-18T23:23:32.332Z,12.97
2023-03-18T23:26:02.166Z,14.50
2023-03-18T23:28:33.037Z,14.90
2023-03-18T23:31:02.979Z,12.83
2023-03-18T23:33:32.098Z,10.33
2023-03-18T23:36:00.658Z,13.00
2023-03-18T23:38:28.964Z,13.63
2023-03-18T23:40:57.340Z,12.13
2023-03-18T23:43:27.060Z,12.40
2023-03-18T23:45:55.593Z,8.17
2023-03-18T23:48:24.221Z,13.30
2023-03-18T23:50:52.758Z,11.17
2023-03-18T23:53:21.079Z,9.53
2023-03-18T23:55:50.177Z,10.37
2023-03-18T23:58:18.682Z,10.30
